Česky Dansk Deutsch English Espańol Suomi Français Magyar Italiano Nederlands norsk Polski Portuguęs svenska Türkçe

 

Het Weer

Nuernberg (Duitsland)

21:50, 21 augustus 2016 (GMT)

NWNNE
WE
SWSSE
Home            
Nuernberg Roth Ansbach / Katterbach Illesheim Kuemmersruck Hohenfels Kitzingen Usa \ Af Bayreuth Grafenwoehr Niederstetten Giebelstadt Neuburg / Donau Ingolstadt Hof Augsburg Munchen Fuerstenfeldbruck Lechfeld Erding Mebstetten / Albstadt Karlovy Vary Oberpfaffenhofen Landsberg

Om een weerknop op uw website of weblog te plaatsen, copieer onderstaande code en plak die in uw pagina. In het eerste vakje staat HTML-code, in het tweede vakje UBB-code.


Add to Google

Details

Wind speed:1 bf, 2 kn, 1.0 m/s, 2.3 miles/h, 3.7 km/h
Wind direction:Variable
Láthatóság általában:Nagyobb, mint 10000 m, 10 km, 32800 ft, 6.2 miles
Clouds:CAVOC
Hőmérséklet:14°C, 57°F
Harmatpont:10°C, 50°F
Légköri nyomás:1024 hPa, 768.1 mmHg, 30.24 inHg, 1.011 atm
Relatív páratartalom:76.8 %
METAR:EDDN 212150Z VRB02KT CAVOK 14/10 Q1024

Snelkoppelingen

Actuele weersinformatie van de hele wereld. Voeg locaties toe met het plus (+) symbool. Deze snelkoppelingen kunnen worden toegevoegd aan Google.

Lid van de Technetium groep

website free tracking
StatCounter NetStat W3C Validator

09-08-2022 09:10:22
astro.technetium.be money.technetium.be phote.technetium.be tafeltennistafel.technetium.be www.ligfiets.net